Time;durP1;ratioP1;P1;durP2;ratioP2;P2;SDS_P1;SDS_P2;PMS_P1;PMS_P2;Temp;Humidity;BMP_temperature;BMP_pressure;BME280_temperature;BME280_humidity;BME280_pressure;Samples;Min_cycle;Max_cycle;Signal;HPM_P1;HPM_P2
2021/05/29 01:58:32;;;;;;;14.18;7.32;;;;;;;12.95;60.71;101993.16;4604751;23;20433;31
2021/05/29 02:01:44;;;;;;;19.10;7.75;;;;;;;13.04;60.92;101981.63;4922006;28;20057;-85
2021/05/29 02:08:01;;;;;;;13.93;7.57;;;;;;;13.08;61.06;101983.09;4192451;23;20189;-84
2021/05/29 04:48:53;;;;;;;17.52;7.85;;;;;;;13.32;61.49;102042.47;4852745;23;20046;-84
2021/05/29 04:51:23;;;;;;;11.45;6.93;;;;;;;13.27;61.31;102047.38;5006597;23;20049;-85
2021/05/29 04:53:50;;;;;;;18.93;8.90;;;;;;;12.90;62.33;102043.97;4611097;23;5849330;-85
2021/05/29 04:58:56;;;;;;;12.18;6.85;;;;;;;13.01;62.11;102045.81;3526949;23;20081;-84
2021/05/29 05:01:34;;;;;;;13.98;6.63;;;;;;;12.71;62.39;102058.03;4938056;28;20042;-84
2021/05/29 05:09:15;;;;;;;15.05;8.48;;;;;;;12.86;62.70;102073.03;5034793;23;20058;-84
2021/05/29 05:16:39;;;;;;;15.13;7.65;;;;;;;13.09;61.90;102065.84;5307342;23;20058;-85
2021/05/29 05:24:15;;;;;;;17.77;7.82;;;;;;;12.91;62.15;102078.06;4997105;23;20404;-84
2021/05/29 07:34:02;;;;;;;15.07;8.88;;;;;;;14.55;56.12;102150.69;6199295;22;20107;-84
2021/05/29 07:36:33;;;;;;;14.73;8.70;;;;;;;14.77;55.88;102156.03;6129883;22;20232;-84
2021/05/29 07:46:31;;;;;;;17.92;8.25;;;;;;;15.27;54.11;102164.41;6162337;22;20505;-85
2021/05/29 08:19:34;;;;;;;14.20;7.65;;;;;;;15.71;53.36;102150.75;6192651;22;20016;-84
2021/05/29 08:24:59;;;;;;;16.57;8.30;;;;;;;15.79;52.56;102154.50;6167596;22;20472;-84
2021/05/29 08:27:37;;;;;;;14.98;7.20;;;;;;;15.82;51.81;102162.38;6195384;22;20342;-84
2021/05/29 08:30:14;;;;;;;19.08;9.32;;;;;;;15.45;51.99;102167.38;6161713;22;20035;-85
2021/05/29 08:32:45;;;;;;;20.88;9.80;;;;;;;15.50;52.47;102172.44;6174395;22;20202;-84
2021/05/29 08:42:46;;;;;;;13.90;7.43;;;;;;;15.59;52.43;102190.63;6188778;22;20031;-84
2021/05/29 08:45:14;;;;;;;14.23;7.07;;;;;;;15.80;52.73;102187.91;6182046;23;20015;-83
2021/05/29 08:47:42;;;;;;;14.85;7.70;;;;;;;15.53;53.43;102192.00;6165085;22;20062;-85
2021/05/29 08:52:48;;;;;;;16.70;7.47;;;;;;;15.87;50.87;102194.50;6162045;22;20039;-85
2021/05/29 08:58:32;;;;;;;18.38;7.05;;;;;;;16.18;50.28;102192.66;6177913;22;20055;-84
2021/05/29 09:03:49;;;;;;;14.38;6.18;;;;;;;16.37;48.75;102199.16;6155139;23;20303;-84
2021/05/29 09:06:36;;;;;;;13.88;7.20;;;;;;;16.43;48.82;102204.03;6152598;23;20013;-83
2021/05/29 09:09:08;;;;;;;16.95;6.35;;;;;;;16.35;49.16;102199.31;6146221;23;20150;-83
2021/05/29 09:14:22;;;;;;;14.23;6.75;;;;;;;17.08;47.79;102201.72;6205192;22;20020;-82
2021/05/29 09:19:21;;;;;;;13.93;7.40;;;;;;;17.00;47.84;102206.03;5110180;27;20443;-82
2021/05/29 16:34:46;;;;;;;13.63;4.22;;;;;;;28.92;27.71;102248.53;5819534;22;20092;-76
2021/05/29 16:37:11;;;;;;;13.73;4.80;;;;;;;28.01;28.95;102246.69;5025122;28;20128;-82
2021/05/29 16:39:37;;;;;;;12.90;5.00;;;;;;;27.71;29.95;102249.91;5045469;28;20067;-82
2021/05/29 16:42:03;;;;;;;13.68;5.45;;;;;;;26.45;32.10;102249.56;5035479;28;20068;-83
2021/05/29 16:44:29;;;;;;;16.50;5.88;;;;;;;26.06;33.34;102251.88;5031733;28;20460;-81
2021/05/29 16:46:55;;;;;;;21.13;7.88;;;;;;;25.52;34.82;102244.19;5030663;28;20074;-82
2021/05/29 16:49:20;;;;;;;30.70;10.75;;;;;;;24.74;36.24;102248.66;5050498;28;20472;-81
2021/05/29 16:51:45;;;;;;;229.40;65.18;;;;;;;25.27;35.54;102248.41;5047962;28;20029;-81
2021/05/29 16:54:11;;;;;;;25.65;8.25;;;;;;;26.21;33.99;102250.91;5018848;28;20041;-82
2021/05/29 16:56:37;;;;;;;23.45;9.98;;;;;;;26.46;33.64;102259.53;5053625;28;20025;-82
2021/05/29 16:59:02;;;;;;;22.65;6.80;;;;;;;25.50;34.81;102253.69;5051598;28;20040;-83
2021/05/29 17:01:27;;;;;;;23.48;9.23;;;;;;;25.39;35.30;102247.69;5049504;28;20101;-82
2021/05/29 17:03:53;;;;;;;34.67;21.42;;;;;;;25.08;36.15;102239.72;5047654;28;20044;-83
2021/05/29 17:06:18;;;;;;;62.85;42.50;;;;;;;25.25;35.39;102245.84;5046729;28;20056;-82
2021/05/29 17:08:53;;;;;;;19.10;6.60;;;;;;;24.81;36.00;102244.06;5047074;28;20497;-85
2021/05/29 17:11:30;;;;;;;18.38;6.28;;;;;;;24.68;36.30;102257.66;5094000;23;20055;-84
2021/05/29 17:13:58;;;;;;;20.88;6.38;;;;;;;24.90;36.24;102247.56;5013595;28;20119;-83
2021/05/29 17:16:23;;;;;;;22.48;6.93;;;;;;;25.40;35.43;102251.28;5011093;28;20049;-84
2021/05/29 17:18:48;;;;;;;19.52;6.47;;;;;;;25.26;35.31;102252.22;5019373;28;20067;-84
2021/05/29 17:21:20;;;;;;;20.55;7.05;;;;;;;24.88;35.83;102256.00;5020209;28;20029;-85
2021/05/29 17:23:46;;;;;;;25.33;6.80;;;;;;;24.37;36.69;102258.72;5012270;28;20124;-83
2021/05/29 17:26:13;;;;;;;25.42;7.05;;;;;;;23.09;39.22;102255.91;4992525;28;20116;-85
2021/05/29 17:28:39;;;;;;;21.65;6.93;;;;;;;23.12;39.42;102258.31;5016233;28;20037;-83
2021/05/29 17:31:05;;;;;;;24.08;6.10;;;;;;;23.94;37.79;102254.91;5025385;28;20065;-80
2021/05/29 17:33:30;;;;;;;30.02;7.28;;;;;;;24.29;36.71;102273.41;5035853;28;20459;-81
2021/05/29 17:35:56;;;;;;;28.45;8.13;;;;;;;23.91;37.42;102261.63;5036371;28;20084;-80
2021/05/29 17:38:21;;;;;;;22.98;6.57;;;;;;;24.54;36.98;102259.38;5006705;28;20029;-80
2021/05/29 17:40:48;;;;;;;23.45;6.93;;;;;;;24.72;36.28;102261.75;5025558;28;20035;-79
2021/05/29 17:43:14;;;;;;;24.25;7.55;;;;;;;25.07;35.27;102273.81;5025970;28;20045;-80
2021/05/29 17:45:40;;;;;;;31.55;7.88;;;;;;;25.12;35.34;102278.72;5041369;28;20033;-80
2021/05/29 17:48:05;;;;;;;21.35;6.90;;;;;;;24.65;36.05;102272.66;5016405;28;20083;-81
2021/05/29 17:50:31;;;;;;;23.40;7.95;;;;;;;25.16;35.14;102275.44;5036788;28;20191;-82
2021/05/29 17:52:57;;;;;;;22.98;8.07;;;;;;;25.80;33.96;102271.75;5009359;28;20037;-82
2021/05/29 17:55:22;;;;;;;18.85;5.78;;;;;;;25.04;34.79;102267.81;5024905;28;20032;-82
2021/05/29 18:00:19;;;;;;;18.02;6.05;;;;;;;25.10;34.36;102267.03;5041338;28;20026;-83
2021/05/29 18:02:46;;;;;;;20.85;7.35;;;;;;;24.12;36.45;102274.63;5019118;28;20032;-81
2021/05/29 18:05:12;;;;;;;20.10;6.50;;;;;;;23.38;38.05;102277.13;5019105;28;20034;-82
2021/05/29 18:07:38;;;;;;;20.27;7.18;;;;;;;23.51;38.59;102276.53;5044525;28;20036;-82
2021/05/29 18:10:05;;;;;;;18.98;6.80;;;;;;;23.54;38.41;102274.28;5023847;28;20416;-83
2021/05/29 18:12:31;;;;;;;24.55;7.97;;;;;;;22.47;40.06;102273.19;5016946;28;20031;-83
2021/05/29 18:14:56;;;;;;;19.63;7.10;;;;;;;22.43;40.70;102280.03;5020937;28;20025;-83
2021/05/29 18:17:21;;;;;;;19.83;6.80;;;;;;;22.13;41.25;102282.50;5042500;28;20055;-83
2021/05/29 18:19:47;;;;;;;23.85;7.78;;;;;;;21.36;43.01;102275.66;5016624;28;20030;-83
2021/05/29 18:22:12;;;;;;;24.00;7.07;;;;;;;21.26;43.29;102275.81;5041732;28;20147;-83
2021/05/29 18:24:38;;;;;;;29.23;7.97;;;;;;;20.63;44.54;102288.09;5019326;28;20029;-82
2021/05/29 18:27:03;;;;;;;31.38;8.40;;;;;;;20.52;44.93;102289.25;5020134;28;20029;-82
2021/05/29 18:29:29;;;;;;;22.92;7.82;;;;;;;20.55;45.35;102288.06;5030901;28;20452;-82
2021/05/29 18:31:54;;;;;;;29.20;8.93;;;;;;;19.93;46.47;102293.66;5014351;28;20041;-83
2021/05/29 18:34:22;;;;;;;24.35;8.25;;;;;;;20.09;46.51;102285.56;5014307;28;20021;-82
2021/05/29 18:37:05;;;;;;;24.23;8.50;;;;;;;19.27;48.50;102293.03;5013822;28;20513;-82
2021/05/29 18:39:31;;;;;;;25.45;8.65;;;;;;;19.02;49.40;102289.19;5032201;28;20040;-82
2021/05/29 18:41:56;;;;;;;23.30;8.57;;;;;;;18.78;50.33;102297.06;5031948;28;20445;-82
2021/05/29 18:44:26;;;;;;;28.75;8.88;;;;;;;18.44;51.35;102294.91;5014398;28;20041;-83
2021/05/29 18:46:52;;;;;;;31.35;8.95;;;;;;;18.04;52.92;102300.63;5014589;28;20059;-83
2021/05/29 18:49:17;;;;;;;26.63;8.23;;;;;;;18.70;50.79;102300.53;5014401;28;20033;-83
2021/05/29 18:51:43;;;;;;;25.52;7.82;;;;;;;18.60;50.94;102310.59;5031969;28;20120;-84
2021/05/29 18:54:10;;;;;;;25.23;8.73;;;;;;;18.92;50.13;102301.19;5032476;28;20033;-84
2021/05/29 18:56:36;;;;;;;23.98;9.02;;;;;;;19.13;49.11;102309.06;5032324;28;20035;-84
2021/05/29 18:59:10;;;;;;;25.73;8.27;;;;;;;18.85;49.52;102309.06;5014111;28;20033;-84
2021/05/29 19:04:26;;;;;;;27.25;9.18;;;;;;;19.01;49.15;102308.44;5032440;28;20084;-83
2021/05/29 19:07:02;;;;;;;30.70;9.40;;;;;;;18.81;49.36;102315.84;5031531;28;20509;-83
2021/05/29 19:09:28;;;;;;;35.13;9.63;;;;;;;18.75;49.55;102302.81;5013780;28;20375;-83
2021/05/29 19:11:53;;;;;;;24.30;8.85;;;;;;;18.62;49.85;102300.44;5032503;28;20044;-84
2021/05/29 19:14:19;;;;;;;30.05;9.02;;;;;;;18.55;50.02;102315.66;5014053;28;20032;-84
2021/05/29 19:16:44;;;;;;;30.80;9.85;;;;;;;18.22;51.08;102312.47;5031254;28;20034;-82
2021/05/29 19:19:10;;;;;;;29.70;10.63;;;;;;;18.02;51.69;102314.38;5013219;28;20034;-82
2021/05/29 19:21:35;;;;;;;25.10;8.63;;;;;;;17.90;51.75;102312.81;5031197;28;20064;-83
2021/05/29 19:29:01;;;;;;;27.95;9.38;;;;;;;17.83;52.02;102319.84;5029830;28;20025;-85
2021/05/29 19:31:40;;;;;;;32.85;10.73;;;;;;;17.99;51.62;102321.97;5031573;28;20033;-85
2021/05/29 19:39:44;;;;;;;31.10;9.90;;;;;;;17.66;52.69;102321.38;5013294;28;20175;-84
2021/05/29 19:42:10;;;;;;;28.13;9.45;;;;;;;17.53;52.98;102324.41;5011535;28;20041;-84
2021/05/29 20:06:37;;;;;;;34.78;12.27;;;;;;;16.34;56.46;102341.47;5011278;28;20068;-84
2021/05/29 20:23:17;;;;;;;34.88;12.70;;;;;;;16.29;56.95;102341.88;5011118;28;20049;-83
2021/05/29 20:28:39;;;;;;;29.80;12.25;;;;;;;15.92;58.05;102344.22;5001695;28;20054;-84
2021/05/29 20:31:04;;;;;;;36.72;13.75;;;;;;;15.65;59.16;102341.09;5010321;28;20037;-83
2021/05/29 20:33:33;;;;;;;34.65;13.63;;;;;;;15.95;58.17;102349.38;5010199;28;20033;-81
2021/05/29 20:35:58;;;;;;;34.38;13.25;;;;;;;15.98;57.77;102356.41;5010549;28;20037;-81
2021/05/29 20:38:24;;;;;;;33.50;12.35;;;;;;;15.73;58.23;102357.59;5008618;28;20033;-81
2021/05/29 20:40:49;;;;;;;31.15;14.27;;;;;;;15.60;58.47;102364.03;5010051;28;20029;-81
2021/05/29 20:43:15;;;;;;;34.85;14.73;;;;;;;15.52;59.11;102358.41;5025135;28;20493;-82
2021/05/29 20:45:45;;;;;;;28.83;12.43;;;;;;;15.26;59.83;102367.84;5025061;28;20121;-81
2021/05/29 20:48:12;;;;;;;38.25;13.73;;;;;;;15.29;59.75;102345.91;5009883;28;20034;-82
2021/05/29 20:50:37;;;;;;;35.63;15.93;;;;;;;15.26;59.80;102354.28;5024668;28;20033;-81
2021/05/29 20:53:03;;;;;;;34.30;13.40;;;;;;;15.40;59.30;102349.44;5024726;28;20414;-81
2021/05/29 20:55:28;;;;;;;34.55;14.15;;;;;;;15.24;60.10;102350.81;5009554;28;20058;-81
2021/05/29 20:57:53;;;;;;;43.72;14.32;;;;;;;15.30;59.65;102347.63;5010053;28;20057;-81
2021/05/29 21:00:20;;;;;;;42.30;16.30;;;;;;;15.26;60.08;102343.44;5009528;28;20569;-81
2021/05/29 21:02:46;;;;;;;37.05;16.20;;;;;;;15.07;61.08;102349.53;5009305;28;20040;-81
2021/05/29 21:05:13;;;;;;;43.97;16.75;;;;;;;15.13;60.63;102339.03;5008018;28;20034;-81
2021/05/29 21:07:39;;;;;;;44.45;19.80;;;;;;;15.31;59.65;102343.94;5009551;28;20038;-81
2021/05/29 21:10:05;;;;;;;48.17;23.25;;;;;;;15.33;59.66;102339.22;5009359;28;20049;-81
2021/05/29 21:12:31;;;;;;;45.78;20.73;;;;;;;15.46;58.95;102342.66;5008251;28;20053;-82
2021/05/29 21:15:10;;;;;;;39.15;20.30;;;;;;;15.19;60.25;102340.38;5007710;28;20112;-82
2021/05/29 21:22:45;;;;;;;44.25;18.20;;;;;;;15.44;59.26;102344.63;5009494;28;20100;-82
2021/05/29 21:25:12;;;;;;;39.55;17.15;;;;;;;15.19;60.15;102351.22;5007871;28;20034;-82
2021/05/29 21:27:38;;;;;;;36.38;16.67;;;;;;;15.08;60.50;102343.09;5009045;28;20041;-82
2021/05/29 21:30:06;;;;;;;37.38;17.77;;;;;;;14.97;61.14;102335.88;5024089;28;20030;-81
2021/05/29 21:32:31;;;;;;;45.20;19.27;;;;;;;14.95;61.44;102345.97;5009564;28;20034;-81
2021/05/29 21:34:57;;;;;;;47.85;18.30;;;;;;;14.68;62.88;102351.75;5009708;28;20037;-84
2021/05/29 21:37:22;;;;;;;35.95;16.55;;;;;;;14.81;62.04;102349.78;5009710;28;20038;-84
2021/05/29 21:39:48;;;;;;;36.70;16.25;;;;;;;14.73;62.16;102346.84;5024263;28;20026;-83
2021/05/29 21:42:13;;;;;;;35.63;17.63;;;;;;;14.89;61.75;102349.16;5008217;28;20037;-83
2021/05/29 21:44:43;;;;;;;40.40;18.23;;;;;;;14.75;62.33;102346.72;5008188;28;20033;-83
2021/05/29 21:49:55;;;;;;;39.58;18.15;;;;;;;14.53;62.87;102364.66;5009842;28;20104;-84
2021/05/29 21:52:21;;;;;;;40.30;19.42;;;;;;;14.65;62.47;102355.56;5024562;28;20065;-84
2021/05/29 21:54:46;;;;;;;42.55;17.25;;;;;;;14.48;62.96;102350.63;5009654;28;20037;-83
2021/05/29 21:57:12;;;;;;;42.30;17.35;;;;;;;14.50;62.98;102351.34;5009351;28;20030;-83
2021/05/29 21:59:43;;;;;;;56.75;22.30;;;;;;;14.01;65.09;102357.91;5009910;28;20069;-83
2021/05/29 22:02:08;;;;;;;36.10;20.13;;;;;;;13.98;65.16;102360.84;5024561;28;20041;-83
2021/05/29 22:04:33;;;;;;;55.25;23.65;;;;;;;14.12;64.77;102362.50;5009397;28;20030;-83
2021/05/29 22:06:59;;;;;;;37.83;20.80;;;;;;;14.31;63.83;102354.66;5007784;28;20022;-84
2021/05/29 22:09:26;;;;;;;51.05;23.45;;;;;;;14.35;63.32;102361.53;5009596;28;20149;-84
2021/05/29 22:19:49;;;;;;;42.38;19.23;;;;;;;14.40;62.98;102372.03;4997353;28;20049;-84
2021/05/29 22:30:40;;;;;;;42.47;18.83;;;;;;;14.75;61.88;102373.78;4971324;28;20875;-84
2021/05/29 22:33:05;;;;;;;36.65;16.88;;;;;;;14.65;62.29;102374.53;4971132;28;20058;-84
2021/05/29 22:35:30;;;;;;;34.30;17.73;;;;;;;14.80;61.49;102372.44;4989897;28;20050;-84
2021/05/29 22:37:56;;;;;;;37.05;16.13;;;;;;;14.80;61.57;102372.44;5027741;28;20478;-84
2021/05/29 22:40:21;;;;;;;39.22;16.67;;;;;;;14.45;62.67;102373.38;5012646;28;20032;-84
2021/05/29 22:42:46;;;;;;;37.10;16.35;;;;;;;14.63;62.13;102381.94;5012683;28;20109;-84
2021/05/29 22:45:12;;;;;;;41.88;17.92;;;;;;;14.63;61.67;102379.22;5012593;28;20030;-84
2021/05/29 22:47:38;;;;;;;41.20;17.70;;;;;;;14.83;61.17;102383.03;5012679;28;20037;-84
2021/05/29 22:50:06;;;;;;;36.03;16.40;;;;;;;14.48;62.10;102385.81;5012379;28;20041;-84
2021/05/29 22:52:31;;;;;;;36.90;15.95;;;;;;;14.69;61.61;102381.44;5012550;28;20062;-83
2021/05/29 22:54:56;;;;;;;35.92;15.43;;;;;;;14.88;61.06;102388.09;5010813;28;20513;-83
2021/05/29 22:57:22;;;;;;;35.28;15.90;;;;;;;14.69;61.47;102389.56;5010997;28;20104;-83
2021/05/29 22:59:48;;;;;;;35.05;14.98;;;;;;;14.54;62.14;102389.91;5012430;28;20040;-83
2021/05/29 23:02:14;;;;;;;35.00;15.43;;;;;;;14.60;61.77;102384.88;5010779;28;20044;-83
2021/05/29 23:04:39;;;;;;;38.30;18.10;;;;;;;14.63;61.43;102391.88;5027270;28;20470;-83
2021/05/29 23:07:04;;;;;;;32.88;16.55;;;;;;;14.58;61.51;102384.13;5010768;28;20045;-83
2021/05/29 23:09:30;;;;;;;35.58;16.75;;;;;;;14.48;62.27;102389.38;5011882;28;20037;-84
2021/05/29 23:11:55;;;;;;;34.60;17.85;;;;;;;14.60;61.66;102381.28;5012055;28;20026;-84
2021/05/29 23:14:20;;;;;;;35.05;16.73;;;;;;;14.28;62.82;102387.38;5012481;28;20038;-84
2021/05/29 23:16:46;;;;;;;35.50;17.25;;;;;;;14.36;62.83;102384.09;5011968;28;20029;-84
2021/05/29 23:19:11;;;;;;;32.38;16.05;;;;;;;14.30;63.03;102390.84;5011821;28;20026;-84
2021/05/29 23:21:36;;;;;;;43.90;19.23;;;;;;;14.11;63.91;102390.50;5012164;28;20484;-84
2021/05/29 23:24:03;;;;;;;32.85;17.48;;;;;;;14.28;63.44;102381.97;5011071;28;20037;-84
2021/05/29 23:26:29;;;;;;;34.65;17.63;;;;;;;14.48;62.76;102378.56;5011608;28;20036;-83
2021/05/29 23:28:54;;;;;;;35.05;18.95;;;;;;;14.39;62.61;102381.13;5011721;28;20034;-83
2021/05/29 23:31:19;;;;;;;47.97;18.83;;;;;;;14.42;62.87;102378.19;5009913;28;20022;-83
2021/05/29 23:33:45;;;;;;;32.95;16.25;;;;;;;14.34;62.66;102389.59;5011537;28;20080;-83
2021/05/29 23:36:10;;;;;;;35.33;16.60;;;;;;;14.08;63.08;102390.75;5011464;28;20105;-84
2021/05/29 23:38:36;;;;;;;31.33;16.83;;;;;;;14.41;62.50;102387.28;5026521;28;20461;-83
2021/05/29 23:41:02;;;;;;;44.22;20.25;;;;;;;14.28;63.44;102389.22;5011535;28;20029;-83
2021/05/29 23:43:27;;;;;;;37.88;16.83;;;;;;;14.47;63.03;102375.97;5011532;28;20030;-83
2021/05/29 23:45:53;;;;;;;42.63;17.08;;;;;;;14.55;62.22;102383.53;5011588;28;20379;-84
2021/05/29 23:48:18;;;;;;;34.88;15.38;;;;;;;14.74;61.75;102382.91;5011471;28;20045;-83
2021/05/29 23:50:43;;;;;;;34.75;16.42;;;;;;;14.65;61.57;102388.06;5011437;28;20500;-84
2021/05/29 23:53:09;;;;;;;29.77;13.63;;;;;;;14.67;61.42;102386.09;5026257;28;20091;-84
2021/05/29 23:55:36;;;;;;;49.33;18.92;;;;;;;14.73;61.43;102382.06;5026023;28;20053;-83
2021/05/29 23:58:07;;;;;;;30.98;14.82;;;;;;;14.32;62.36;102388.00;5009751;28;20036;-84
